PWSweather.com
Personal Weather Stations
Station Observations
SK506605TK
Roznove Mitice, Trencianske MiticeSK 91322

Roznove MiticeTrencianske MiticeSK 91322

Lat: 48.8067, Lon: 18.1133

Elevation: 984

Station Type: Oregon Scientific WMRS200

High Low Average
Temperature 49.6°F9.8°C 38.5°F3.6°C 46.0°F7.8°C
Dew Point 47.8°F8.8°C 34.8°F1.6°C 41.3°F5.2°C
Winds 6.8 mph 10.9 kmh 1.3 mph 2.1 kmh 4.0 mph NW6.4 kmh NW
Wind Gusts 13.0 mph20.9 kmh 2.5 mph4.0 kmh 7.0 mph11.3 kmh
Humidity 100% 69% 84%
Pressure 28.88 in978.0 mb 28.53 in966.1 mb -
Precipitation 0.05 in1.3 mm - -
Hour Temp Dew Point Humidity Winds Wind Gusts Pressure Precip Precip Rate Daily Precip Total
12:00 AM 49.6°F9.8°C 47.8°F8.8°C 93% 5.0 mph WNW8.0 kmh WNW 7.4 mph11.9 kmh 28.53 in966.1 mb 0.00 in0.0 mm 0.00 in/hr0.0 mm/hr 0.00 in0.0 mm
12:05 AM 49.5°F9.7°C 47.6°F8.7°C 93% 4.6 mph NW7.4 kmh NW 7.8 mph12.6 kmh 28.53 in966.1 mb 0.00 in0.0 mm 0.00 in/hr0.0 mm/hr 0.00 in0.0 mm
12:10 AM 49.5°F9.7°C 47.6°F8.7°C 93% 5.1 mph WNW8.2 kmh WNW 7.8 mph12.6 kmh 28.53 in966.1 mb 0.00 in0.0 mm 0.00 in/hr0.0 mm/hr 0.00 in0.0 mm
12:15 AM 49.5°F9.7°C 47.6°F8.7°C 93% 4.3 mph WNW6.9 kmh WNW 7.8 mph12.6 kmh 28.53 in966.1 mb 0.00 in0.0 mm 0.00 in/hr0.0 mm/hr 0.00 in0.0 mm
12:20 AM 49.4°F9.7°C 47.6°F8.7°C 93% 5.6 mph NW9.0 kmh NW 8.7 mph14.0 kmh 28.53 in966.1 mb 0.00 in0.0 mm 0.00 in/hr0.0 mm/hr 0.00 in0.0 mm
12:25 AM 49.3°F9.6°C 47.3°F8.5°C 92% 6.0 mph WNW9.7 kmh WNW 8.7 mph14.0 kmh 28.53 in966.1 mb 0.00 in0.0 mm 0.00 in/hr0.0 mm/hr 0.00 in0.0 mm
12:30 AM 49.3°F9.6°C 47.1°F8.4°C 92% 6.5 mph WNW10.5 kmh WNW 8.7 mph14.0 kmh 28.53 in966.1 mb 0.00 in0.0 mm 0.00 in/hr0.0 mm/hr 0.00 in0.0 mm
12:35 AM 49.2°F9.6°C 47.0°F8.3°C 92% 6.6 mph NW10.6 kmh NW 8.7 mph14.0 kmh 28.53 in966.1 mb 0.00 in0.0 mm 0.00 in/hr0.0 mm/hr 0.00 in0.0 mm
12:40 AM 49.1°F9.5°C 46.9°F8.3°C 92% 5.2 mph NW8.4 kmh NW 8.7 mph14.0 kmh 28.53 in966.1 mb 0.00 in0.0 mm 0.00 in/hr0.0 mm/hr 0.00 in0.0 mm
12:45 AM 49.0°F9.4°C 46.8°F8.2°C 92% 6.0 mph WNW9.7 kmh WNW 8.1 mph13.0 kmh 28.53 in966.1 mb 0.00 in0.0 mm 0.00 in/hr0.0 mm/hr 0.00 in0.0 mm
12:50 AM 48.9°F9.4°C 46.8°F8.2°C 92% 5.5 mph NW8.9 kmh NW 8.1 mph13.0 kmh 28.53 in966.1 mb 0.00 in0.0 mm 0.00 in/hr0.0 mm/hr 0.00 in0.0 mm
12:55 AM 48.9°F9.4°C 46.8°F8.2°C 92% 5.8 mph WNW9.3 kmh WNW 8.1 mph13.0 kmh 28.53 in966.1 mb 0.00 in0.0 mm 0.00 in/hr0.0 mm/hr 0.00 in0.0 mm
01:00 AM 48.8°F9.3°C 46.6°F8.1°C 92% 5.3 mph WNW8.5 kmh WNW 8.5 mph13.7 kmh 28.53 in966.1 mb 0.00 in0.0 mm 0.00 in/hr0.0 mm/hr 0.00 in0.0 mm
01:05 AM 48.7°F9.3°C 46.6°F8.1°C 92% 5.4 mph NW8.7 kmh NW 8.5 mph13.7 kmh 28.53 in966.1 mb 0.00 in0.0 mm 0.00 in/hr0.0 mm/hr 0.00 in0.0 mm
01:10 AM 48.7°F9.3°C 46.6°F8.1°C 92% 5.7 mph NW9.2 kmh NW 8.7 mph14.0 kmh 28.53 in966.1 mb 0.00 in0.0 mm 0.00 in/hr0.0 mm/hr 0.00 in0.0 mm
01:15 AM 48.7°F9.3°C 46.6°F8.1°C 92% 5.9 mph WNW9.5 kmh WNW 9.6 mph15.4 kmh 28.53 in966.1 mb 0.00 in0.0 mm 0.00 in/hr0.0 mm/hr 0.00 in0.0 mm
01:20 AM 48.6°F9.2°C 46.4°F8.0°C 92% 5.8 mph NW9.3 kmh NW 9.6 mph15.4 kmh 28.53 in966.1 mb 0.00 in0.0 mm 0.00 in/hr0.0 mm/hr 0.00 in0.0 mm
01:25 AM 48.5°F9.2°C 46.6°F8.1°C 93% 4.7 mph NW7.6 kmh NW 9.4 mph15.1 kmh 28.53 in966.1 mb 0.00 in0.0 mm 0.00 in/hr0.0 mm/hr 0.00 in0.0 mm
01:30 AM 48.3°F9.1°C 46.7°F8.2°C 94% 6.0 mph NW9.7 kmh NW 9.4 mph15.1 kmh 28.53 in966.1 mb 0.00 in0.0 mm 0.00 in/hr0.0 mm/hr 0.00 in0.0 mm
01:35 AM 48.2°F9.0°C 46.7°F8.2°C 94% 4.8 mph NW7.7 kmh NW 10.1 mph16.3 kmh 28.53 in966.1 mb 0.00 in0.0 mm 0.00 in/hr0.0 mm/hr 0.00 in0.0 mm
01:40 AM 48.0°F8.9°C 46.9°F8.3°C 97% 5.6 mph WNW9.0 kmh WNW 10.1 mph16.3 kmh 28.53 in966.1 mb 0.00 in0.0 mm 0.00 in/hr0.0 mm/hr 0.00 in0.0 mm
01:45 AM 47.9°F8.8°C 47.0°F8.3°C 97% 3.8 mph NW6.1 kmh NW 9.6 mph15.4 kmh 28.53 in966.1 mb 0.00 in0.0 mm 0.00 in/hr0.0 mm/hr 0.00 in0.0 mm
01:50 AM 47.8°F8.8°C 47.2°F8.4°C 98% 4.6 mph WNW7.4 kmh WNW 8.5 mph13.7 kmh 28.53 in966.1 mb 0.00 in0.0 mm 0.00 in/hr0.0 mm/hr 0.00 in0.0 mm
01:55 AM 47.7°F8.7°C 47.1°F8.4°C 98% 5.6 mph NW9.0 kmh NW 9.6 mph15.4 kmh 28.53 in966.1 mb 0.00 in0.0 mm 0.00 in/hr0.0 mm/hr 0.00 in0.0 mm
02:00 AM 47.7°F8.7°C 47.1°F8.4°C 98% 4.9 mph WNW7.9 kmh WNW 9.6 mph15.4 kmh 28.53 in966.1 mb 0.00 in0.0 mm 0.00 in/hr0.0 mm/hr 0.00 in0.0 mm
02:05 AM 47.5°F8.6°C 46.9°F8.3°C 98% 5.1 mph NW8.2 kmh NW 8.5 mph13.7 kmh 28.53 in966.1 mb 0.00 in0.0 mm 0.00 in/hr0.0 mm/hr 0.00 in0.0 mm
02:10 AM 47.5°F8.6°C 47.1°F8.4°C 99% 5.9 mph WNW9.5 kmh WNW 9.6 mph15.4 kmh 28.53 in966.1 mb 0.00 in0.0 mm 0.00 in/hr0.0 mm/hr 0.00 in0.0 mm
02:15 AM 47.5°F8.6°C 47.2°F8.4°C 99% 5.6 mph NW9.0 kmh NW 10.7 mph17.2 kmh 28.53 in966.1 mb 0.05 in1.3 mm 0.60 in/hr15.2 mm/hr 0.05 in1.3 mm
02:20 AM 47.3°F8.5°C 47.0°F8.3°C 99% 6.1 mph NW9.8 kmh NW 10.7 mph17.2 kmh 28.53 in966.1 mb 0.05 in1.3 mm 0.00 in/hr0.0 mm/hr 0.05 in1.3 mm
02:25 AM 47.3°F8.5°C 47.0°F8.3°C 99% 4.4 mph WNW7.1 kmh WNW 8.1 mph13.0 kmh 28.53 in966.1 mb 0.05 in1.3 mm 0.00 in/hr0.0 mm/hr 0.05 in1.3 mm
02:30 AM 47.3°F8.5°C 47.3°F8.5°C 100% 4.6 mph NW7.4 kmh NW 9.6 mph15.4 kmh 28.53 in966.1 mb 0.05 in1.3 mm 0.00 in/hr0.0 mm/hr 0.05 in1.3 mm
02:35 AM 47.3°F8.5°C 47.3°F8.5°C 100% 5.5 mph NW8.9 kmh NW 9.6 mph15.4 kmh 28.53 in966.1 mb 0.05 in1.3 mm 0.00 in/hr0.0 mm/hr 0.05 in1.3 mm
02:40 AM 47.2°F8.4°C 47.2°F8.4°C 100% 5.5 mph NW8.9 kmh NW 9.8 mph15.8 kmh 28.53 in966.1 mb 0.05 in1.3 mm 0.00 in/hr0.0 mm/hr 0.05 in1.3 mm
02:45 AM 47.1°F8.4°C 47.1°F8.4°C 100% 6.2 mph WNW10.0 kmh WNW 10.5 mph16.9 kmh 28.53 in966.1 mb 0.05 in1.3 mm 0.00 in/hr0.0 mm/hr 0.05 in1.3 mm
02:50 AM 47.1°F8.4°C 47.1°F8.4°C 100% 6.4 mph NW10.3 kmh NW 10.5 mph16.9 kmh 28.53 in966.1 mb 0.05 in1.3 mm 0.00 in/hr0.0 mm/hr 0.05 in1.3 mm
02:55 AM 47.1°F8.4°C 47.1°F8.4°C 100% 5.7 mph NNW9.2 kmh NNW 8.7 mph14.0 kmh 28.53 in966.1 mb 0.05 in1.3 mm 0.00 in/hr0.0 mm/hr 0.05 in1.3 mm
03:00 AM 47.1°F8.4°C 47.1°F8.4°C 100% 4.6 mph NW7.4 kmh NW 8.7 mph14.0 kmh 28.53 in966.1 mb 0.05 in1.3 mm 0.00 in/hr0.0 mm/hr 0.05 in1.3 mm
03:05 AM 47.1°F8.4°C 47.1°F8.4°C 100% 4.1 mph NW6.6 kmh NW 10.3 mph16.6 kmh 28.53 in966.1 mb 0.05 in1.3 mm 0.00 in/hr0.0 mm/hr 0.05 in1.3 mm
03:10 AM 47.1°F8.4°C 47.1°F8.4°C 100% 4.7 mph WNW7.6 kmh WNW 10.3 mph16.6 kmh 28.53 in966.1 mb 0.05 in1.3 mm 0.00 in/hr0.0 mm/hr 0.05 in1.3 mm
03:17 AM 47.1°F8.4°C 47.1°F8.4°C 100% 3.7 mph NW6.0 kmh NW 8.1 mph13.0 kmh 28.53 in966.1 mb 0.00 in0.0 mm 0.00 in/hr0.0 mm/hr 0.05 in1.3 mm
03:22 AM 46.9°F8.3°C 46.9°F8.3°C 100% 5.2 mph NW8.4 kmh NW 8.1 mph13.0 kmh 28.53 in966.1 mb 0.00 in0.0 mm 0.00 in/hr0.0 mm/hr 0.05 in1.3 mm
03:27 AM 47.0°F8.3°C 47.0°F8.3°C 100% 4.9 mph WNW7.9 kmh WNW 8.5 mph13.7 kmh 28.53 in966.1 mb 0.00 in0.0 mm 0.00 in/hr0.0 mm/hr 0.05 in1.3 mm
03:34 AM 46.9°F8.3°C 46.9°F8.3°C 100% 3.9 mph WNW6.3 kmh WNW 8.7 mph14.0 kmh 28.53 in966.1 mb 0.00 in0.0 mm 0.00 in/hr0.0 mm/hr 0.05 in1.3 mm
03:39 AM 46.9°F8.3°C 46.9°F8.3°C 100% 4.8 mph WNW7.7 kmh WNW 8.7 mph14.0 kmh 28.53 in966.1 mb 0.00 in0.0 mm 0.00 in/hr0.0 mm/hr 0.05 in1.3 mm
03:44 AM 46.9°F8.3°C 46.9°F8.3°C 100% 4.1 mph NW6.6 kmh NW 8.5 mph13.7 kmh 28.53 in966.1 mb 0.00 in0.0 mm 0.00 in/hr0.0 mm/hr 0.05 in1.3 mm
03:49 AM 46.9°F8.3°C 46.9°F8.3°C 100% 3.2 mph WNW5.1 kmh WNW 7.4 mph11.9 kmh 28.53 in966.1 mb 0.00 in0.0 mm 0.00 in/hr0.0 mm/hr 0.05 in1.3 mm
03:54 AM 46.9°F8.3°C 46.9°F8.3°C 100% 3.6 mph WNW5.8 kmh WNW 7.4 mph11.9 kmh 28.53 in966.1 mb 0.00 in0.0 mm 0.00 in/hr0.0 mm/hr 0.05 in1.3 mm
03:59 AM 46.9°F8.3°C 46.9°F8.3°C 100% 3.6 mph NW5.8 kmh NW 6.0 mph9.7 kmh 28.53 in966.1 mb 0.00 in0.0 mm 0.00 in/hr0.0 mm/hr 0.05 in1.3 mm
04:04 AM 46.9°F8.3°C 46.9°F8.3°C 99% 3.1 mph NW5.0 kmh NW 6.5 mph10.5 kmh 28.53 in966.1 mb 0.00 in0.0 mm 0.00 in/hr0.0 mm/hr 0.05 in1.3 mm
04:09 AM 47.1°F8.4°C 46.8°F8.2°C 99% 4.1 mph NW6.6 kmh NW 7.4 mph11.9 kmh 28.53 in966.1 mb 0.00 in0.0 mm 0.00 in/hr0.0 mm/hr 0.05 in1.3 mm
04:14 AM 47.1°F8.4°C 46.8°F8.2°C 99% 3.8 mph NW6.1 kmh NW 7.4 mph11.9 kmh 28.53 in966.1 mb 0.00 in0.0 mm 0.00 in/hr0.0 mm/hr 0.05 in1.3 mm
04:19 AM 47.1°F8.4°C 46.8°F8.2°C 99% 3.6 mph NW5.8 kmh NW 6.7 mph10.8 kmh 28.53 in966.1 mb 0.00 in0.0 mm 0.00 in/hr0.0 mm/hr 0.05 in1.3 mm
04:24 AM 47.1°F8.4°C 46.8°F8.2°C 99% 3.1 mph NW5.0 kmh NW 5.8 mph9.3 kmh 28.53 in966.1 mb 0.00 in0.0 mm 0.00 in/hr0.0 mm/hr 0.05 in1.3 mm
04:29 AM 46.9°F8.3°C 46.6°F8.1°C 99% 4.1 mph WNW6.6 kmh WNW 7.6 mph12.2 kmh 28.56 in967.2 mb 0.00 in0.0 mm 0.00 in/hr0.0 mm/hr 0.05 in1.3 mm
04:34 AM 46.9°F8.3°C 46.6°F8.1°C 99% 3.0 mph NW4.8 kmh NW 7.6 mph12.2 kmh 28.56 in967.2 mb 0.00 in0.0 mm 0.00 in/hr0.0 mm/hr 0.05 in1.3 mm
04:39 AM 46.9°F8.3°C 46.6°F8.1°C 99% 3.5 mph WNW5.6 kmh WNW 7.4 mph11.9 kmh 28.56 in967.2 mb 0.00 in0.0 mm 0.00 in/hr0.0 mm/hr 0.05 in1.3 mm
04:44 AM 47.1°F8.4°C 46.8°F8.2°C 99% 3.1 mph NW5.0 kmh NW 7.4 mph11.9 kmh 28.56 in967.2 mb 0.00 in0.0 mm 0.00 in/hr0.0 mm/hr 0.05 in1.3 mm
04:49 AM 47.0°F8.3°C 46.7°F8.2°C 99% 3.5 mph WNW5.6 kmh WNW 6.9 mph11.1 kmh 28.56 in967.2 mb 0.00 in0.0 mm 0.00 in/hr0.0 mm/hr 0.05 in1.3 mm
04:54 AM 46.9°F8.3°C 46.6°F8.1°C 99% 2.9 mph W4.7 kmh W 7.4 mph11.9 kmh 28.56 in967.2 mb 0.00 in0.0 mm 0.00 in/hr0.0 mm/hr 0.05 in1.3 mm
04:59 AM 47.1°F8.4°C 46.8°F8.2°C 99% 2.6 mph NW4.2 kmh NW 7.4 mph11.9 kmh 28.56 in967.2 mb 0.00 in0.0 mm 0.00 in/hr0.0 mm/hr 0.05 in1.3 mm
05:04 AM 47.1°F8.4°C 46.8°F8.2°C 99% 2.3 mph NNW3.7 kmh NNW 4.9 mph7.9 kmh 28.56 in967.2 mb 0.00 in0.0 mm 0.00 in/hr0.0 mm/hr 0.05 in1.3 mm
05:09 AM 47.1°F8.4°C 46.8°F8.2°C 99% 1.5 mph SSW2.4 kmh SSW 5.6 mph9.0 kmh 28.56 in967.2 mb 0.00 in0.0 mm 0.00 in/hr0.0 mm/hr 0.05 in1.3 mm
05:14 AM 47.0°F8.3°C 46.4°F8.0°C 98% 1.3 mph E2.1 kmh E 5.6 mph9.0 kmh 28.56 in967.2 mb 0.00 in0.0 mm 0.00 in/hr0.0 mm/hr 0.05 in1.3 mm
05:19 AM 47.0°F8.3°C 46.5°F8.1°C 99% 2.5 mph NW4.0 kmh NW 5.8 mph9.3 kmh 28.56 in967.2 mb 0.00 in0.0 mm 0.00 in/hr0.0 mm/hr 0.05 in1.3 mm
05:24 AM 47.0°F8.3°C 46.6°F8.1°C 98% 1.7 mph WNW2.7 kmh WNW 5.8 mph9.3 kmh 28.56 in967.2 mb 0.00 in0.0 mm 0.00 in/hr0.0 mm/hr 0.05 in1.3 mm
05:29 AM 47.1°F8.4°C 46.5°F8.1°C 98% 1.8 mph WNW2.9 kmh WNW 5.4 mph8.7 kmh 28.56 in967.2 mb 0.00 in0.0 mm 0.00 in/hr0.0 mm/hr 0.05 in1.3 mm
05:34 AM 47.1°F8.4°C 46.5°F8.1°C 98% 2.8 mph NW4.5 kmh NW 5.6 mph9.0 kmh 28.56 in967.2 mb 0.00 in0.0 mm 0.00 in/hr0.0 mm/hr 0.05 in1.3 mm
05:39 AM 47.1°F8.4°C 46.5°F8.1°C 98% 3.1 mph NW5.0 kmh NW 5.8 mph9.3 kmh 28.56 in967.2 mb 0.00 in0.0 mm 0.00 in/hr0.0 mm/hr 0.05 in1.3 mm
05:44 AM 47.1°F8.4°C 46.5°F8.1°C 98% 3.0 mph WNW4.8 kmh WNW 6.3 mph10.1 kmh 28.59 in968.2 mb 0.00 in0.0 mm 0.00 in/hr0.0 mm/hr 0.05 in1.3 mm
05:49 AM 47.1°F8.4°C 46.5°F8.1°C 98% 4.2 mph NW6.8 kmh NW 6.3 mph10.1 kmh 28.59 in968.2 mb 0.00 in0.0 mm 0.00 in/hr0.0 mm/hr 0.05 in1.3 mm
05:54 AM 47.1°F8.4°C 46.5°F8.1°C 98% 4.1 mph NW6.6 kmh NW 7.2 mph11.6 kmh 28.59 in968.2 mb 0.00 in0.0 mm 0.00 in/hr0.0 mm/hr 0.05 in1.3 mm
05:59 AM 47.2°F8.4°C 46.4°F8.0°C 97% 5.4 mph NW8.7 kmh NW 8.7 mph14.0 kmh 28.56 in967.2 mb 0.00 in0.0 mm 0.00 in/hr0.0 mm/hr 0.05 in1.3 mm
06:04 AM 47.3°F8.5°C 46.4°F8.0°C 97% 4.4 mph NW7.1 kmh NW 8.7 mph14.0 kmh 28.56 in967.2 mb 0.00 in0.0 mm 0.00 in/hr0.0 mm/hr 0.05 in1.3 mm
06:09 AM 47.3°F8.5°C 46.3°F7.9°C 97% 4.0 mph NW6.4 kmh NW 8.1 mph13.0 kmh 28.56 in967.2 mb 0.00 in0.0 mm 0.00 in/hr0.0 mm/hr 0.05 in1.3 mm
06:14 AM 47.3°F8.5°C 46.4°F8.0°C 97% 3.7 mph WNW6.0 kmh WNW 8.1 mph13.0 kmh 28.53 in966.1 mb 0.00 in0.0 mm 0.00 in/hr0.0 mm/hr 0.05 in1.3 mm
06:19 AM 47.3°F8.5°C 46.4°F8.0°C 97% 4.8 mph NW7.7 kmh NW 8.1 mph13.0 kmh 28.53 in966.1 mb 0.00 in0.0 mm 0.00 in/hr0.0 mm/hr 0.05 in1.3 mm
06:24 AM 47.3°F8.5°C 46.4°F8.0°C 96% 5.3 mph WNW8.5 kmh WNW 7.4 mph11.9 kmh 28.53 in966.1 mb 0.00 in0.0 mm 0.00 in/hr0.0 mm/hr 0.05 in1.3 mm
06:29 AM 47.5°F8.6°C 46.4°F8.0°C 97% 3.9 mph WNW6.3 kmh WNW 7.2 mph11.6 kmh 28.56 in967.2 mb 0.00 in0.0 mm 0.00 in/hr0.0 mm/hr 0.05 in1.3 mm
06:34 AM 47.5°F8.6°C 46.5°F8.1°C 96% 4.5 mph WNW7.2 kmh WNW 8.7 mph14.0 kmh 28.56 in967.2 mb 0.00 in0.0 mm 0.00 in/hr0.0 mm/hr 0.05 in1.3 mm
06:39 AM 47.5°F8.6°C 46.3°F7.9°C 96% 5.4 mph NW8.7 kmh NW 8.7 mph14.0 kmh 28.56 in967.2 mb 0.00 in0.0 mm 0.00 in/hr0.0 mm/hr 0.05 in1.3 mm
06:44 AM 47.5°F8.6°C 46.0°F7.8°C 94% 5.2 mph NW8.4 kmh NW 10.3 mph16.6 kmh 28.56 in967.2 mb 0.00 in0.0 mm 0.00 in/hr0.0 mm/hr 0.05 in1.3 mm
06:49 AM 47.7°F8.7°C 45.8°F7.7°C 93% 5.4 mph NW8.7 kmh NW 10.3 mph16.6 kmh 28.56 in967.2 mb 0.00 in0.0 mm 0.00 in/hr0.0 mm/hr 0.05 in1.3 mm
06:54 AM 47.7°F8.7°C 45.8°F7.7°C 92% 5.5 mph NW8.9 kmh NW 8.7 mph14.0 kmh 28.56 in967.2 mb 0.00 in0.0 mm 0.00 in/hr0.0 mm/hr 0.05 in1.3 mm
06:59 AM 47.9°F8.8°C 45.9°F7.7°C 93% 4.5 mph NW7.2 kmh NW 8.7 mph14.0 kmh 28.56 in967.2 mb 0.00 in0.0 mm 0.00 in/hr0.0 mm/hr 0.05 in1.3 mm
07:04 AM 48.1°F8.9°C 45.9°F7.7°C 91% 4.3 mph NW6.9 kmh NW 8.5 mph13.7 kmh 28.56 in967.2 mb 0.00 in0.0 mm 0.00 in/hr0.0 mm/hr 0.05 in1.3 mm
07:09 AM 48.2°F9.0°C 45.6°F7.6°C 90% 4.7 mph WNW7.6 kmh WNW 8.5 mph13.7 kmh 28.56 in967.2 mb 0.00 in0.0 mm 0.00 in/hr0.0 mm/hr 0.05 in1.3 mm
07:14 AM 48.4°F9.1°C 45.7°F7.6°C 90% 4.7 mph NW7.6 kmh NW 7.8 mph12.6 kmh 28.56 in967.2 mb 0.00 in0.0 mm 0.00 in/hr0.0 mm/hr 0.05 in1.3 mm
07:19 AM 48.6°F9.2°C 45.5°F7.5°C 89% 3.7 mph NW6.0 kmh NW 10.1 mph16.3 kmh 28.56 in967.2 mb 0.00 in0.0 mm 0.00 in/hr0.0 mm/hr 0.05 in1.3 mm
07:24 AM 48.7°F9.3°C 45.3°F7.4°C 88% 3.8 mph NW6.1 kmh NW 10.1 mph16.3 kmh 28.56 in967.2 mb 0.00 in0.0 mm 0.00 in/hr0.0 mm/hr 0.05 in1.3 mm
07:29 AM 48.9°F9.4°C 45.2°F7.3°C 87% 4.9 mph NW7.9 kmh NW 9.6 mph15.4 kmh 28.59 in968.2 mb 0.00 in0.0 mm 0.00 in/hr0.0 mm/hr 0.05 in1.3 mm
07:34 AM 49.0°F9.4°C 45.1°F7.3°C 87% 4.3 mph NW6.9 kmh NW 7.4 mph11.9 kmh 28.59 in968.2 mb 0.00 in0.0 mm 0.00 in/hr0.0 mm/hr 0.05 in1.3 mm
07:39 AM 49.1°F9.5°C 45.0°F7.2°C 86% 5.4 mph NW8.7 kmh NW 9.2 mph14.8 kmh 28.59 in968.2 mb 0.00 in0.0 mm 0.00 in/hr0.0 mm/hr 0.05 in1.3 mm
07:44 AM 49.0°F9.4°C 44.8°F7.1°C 84% 5.4 mph WNW8.7 kmh WNW 9.2 mph14.8 kmh 28.56 in967.2 mb 0.00 in0.0 mm 0.00 in/hr0.0 mm/hr 0.05 in1.3 mm
07:49 AM 48.9°F9.4°C 44.4°F6.9°C 84% 4.3 mph NW6.9 kmh NW 11.0 mph17.7 kmh 28.56 in967.2 mb 0.00 in0.0 mm 0.00 in/hr0.0 mm/hr 0.05 in1.3 mm
07:54 AM 48.9°F9.4°C 44.4°F6.9°C 84% 4.0 mph NW6.4 kmh NW 11.0 mph17.7 kmh 28.56 in967.2 mb 0.00 in0.0 mm 0.00 in/hr0.0 mm/hr 0.05 in1.3 mm
07:59 AM 48.9°F9.4°C 44.4°F6.9°C 84% 5.0 mph WNW8.0 kmh WNW 10.1 mph16.3 kmh 28.59 in968.2 mb 0.00 in0.0 mm 0.00 in/hr0.0 mm/hr 0.05 in1.3 mm
08:04 AM 48.7°F9.3°C 43.9°F6.6°C 83% 5.4 mph WNW8.7 kmh WNW 10.3 mph16.6 kmh 28.59 in968.2 mb 0.00 in0.0 mm 0.00 in/hr0.0 mm/hr 0.05 in1.3 mm
08:09 AM 48.8°F9.3°C 44.2°F6.8°C 84% 3.2 mph NW5.1 kmh NW 10.3 mph16.6 kmh 28.59 in968.2 mb 0.00 in0.0 mm 0.00 in/hr0.0 mm/hr 0.05 in1.3 mm
08:14 AM 48.9°F9.4°C 44.2°F6.8°C 83% 4.4 mph WNW7.1 kmh WNW 6.5 mph10.5 kmh 28.59 in968.2 mb 0.00 in0.0 mm 0.00 in/hr0.0 mm/hr 0.05 in1.3 mm
08:19 AM 48.9°F9.4°C 44.1°F6.7°C 83% 3.5 mph WNW5.6 kmh WNW 6.5 mph10.5 kmh 28.59 in968.2 mb 0.00 in0.0 mm 0.00 in/hr0.0 mm/hr 0.05 in1.3 mm
08:24 AM 49.0°F9.4°C 44.2°F6.8°C 83% 1.9 mph NW3.1 kmh NW 5.8 mph9.3 kmh 28.59 in968.2 mb 0.00 in0.0 mm 0.00 in/hr0.0 mm/hr 0.05 in1.3 mm
08:29 AM 49.0°F9.4°C 44.1°F6.7°C 83% 3.8 mph WNW6.1 kmh WNW 7.6 mph12.2 kmh 28.61 in968.8 mb 0.00 in0.0 mm 0.00 in/hr0.0 mm/hr 0.05 in1.3 mm
08:34 AM 49.1°F9.5°C 43.9°F6.6°C 82% 2.3 mph NW3.7 kmh NW 7.6 mph12.2 kmh 28.61 in968.8 mb 0.00 in0.0 mm 0.00 in/hr0.0 mm/hr 0.05 in1.3 mm
08:39 AM 48.9°F9.4°C 43.9°F6.6°C 83% 2.5 mph NW4.0 kmh NW 4.7 mph7.6 kmh 28.61 in968.8 mb 0.00 in0.0 mm 0.00 in/hr0.0 mm/hr 0.05 in1.3 mm
08:44 AM 48.9°F9.4°C 43.8°F6.6°C 82% 2.8 mph NW4.5 kmh NW 5.8 mph9.3 kmh 28.61 in968.8 mb 0.00 in0.0 mm 0.00 in/hr0.0 mm/hr 0.05 in1.3 mm
08:49 AM 48.7°F9.3°C 43.6°F6.4°C 82% 1.4 mph W2.3 kmh W 5.8 mph9.3 kmh 28.61 in968.8 mb 0.00 in0.0 mm 0.00 in/hr0.0 mm/hr 0.05 in1.3 mm
08:54 AM 48.7°F9.3°C 43.7°F6.5°C 83% 2.7 mph NW4.3 kmh NW 4.3 mph6.9 kmh 28.61 in968.8 mb 0.00 in0.0 mm 0.00 in/hr0.0 mm/hr 0.05 in1.3 mm
08:59 AM 48.7°F9.3°C 43.4°F6.3°C 82% 3.1 mph NW5.0 kmh NW 5.6 mph9.0 kmh 28.64 in969.9 mb 0.00 in0.0 mm 0.00 in/hr0.0 mm/hr 0.05 in1.3 mm
09:04 AM 48.6°F9.2°C 43.4°F6.3°C 82% 2.8 mph NW4.5 kmh NW 5.6 mph9.0 kmh 28.64 in969.9 mb 0.00 in0.0 mm 0.00 in/hr0.0 mm/hr 0.05 in1.3 mm
09:09 AM 48.6°F9.2°C 43.4°F6.3°C 82% 3.0 mph WNW4.8 kmh WNW 4.9 mph7.9 kmh 28.64 in969.9 mb 0.00 in0.0 mm 0.00 in/hr0.0 mm/hr 0.05 in1.3 mm
09:14 AM 48.4°F9.1°C 43.2°F6.2°C 82% 3.8 mph NW6.1 kmh NW 5.8 mph9.3 kmh 28.59 in968.2 mb 0.00 in0.0 mm 0.00 in/hr0.0 mm/hr 0.05 in1.3 mm
09:19 AM 48.2°F9.0°C 42.7°F5.9°C 81% 4.5 mph NW7.2 kmh NW 7.6 mph12.2 kmh 28.59 in968.2 mb 0.00 in0.0 mm 0.00 in/hr0.0 mm/hr 0.05 in1.3 mm
09:24 AM 48.0°F8.9°C 42.7°F5.9°C 82% 3.9 mph NW6.3 kmh NW 7.6 mph12.2 kmh 28.59 in968.2 mb 0.00 in0.0 mm 0.00 in/hr0.0 mm/hr 0.05 in1.3 mm
09:29 AM 47.8°F8.8°C 42.7°F5.9°C 82% 4.4 mph WNW7.1 kmh WNW 6.5 mph10.5 kmh 28.61 in968.8 mb 0.00 in0.0 mm 0.00 in/hr0.0 mm/hr 0.05 in1.3 mm
09:34 AM 47.7°F8.7°C 42.5°F5.8°C 82% 4.2 mph NW6.8 kmh NW 6.5 mph10.5 kmh 28.61 in968.8 mb 0.00 in0.0 mm 0.00 in/hr0.0 mm/hr 0.05 in1.3 mm
09:39 AM 47.6°F8.7°C 42.6°F5.9°C 83% 4.1 mph NW6.6 kmh NW 7.2 mph11.6 kmh 28.61 in968.8 mb 0.00 in0.0 mm 0.00 in/hr0.0 mm/hr 0.05 in1.3 mm
09:44 AM 47.6°F8.7°C 42.9°F6.1°C 84% 2.0 mph WNW3.2 kmh WNW 7.2 mph11.6 kmh 28.61 in968.8 mb 0.00 in0.0 mm 0.00 in/hr0.0 mm/hr 0.05 in1.3 mm
09:49 AM 47.8°F8.8°C 43.3°F6.3°C 84% 3.0 mph NW4.8 kmh NW 4.3 mph6.9 kmh 28.61 in968.8 mb 0.00 in0.0 mm 0.00 in/hr0.0 mm/hr 0.05 in1.3 mm
09:54 AM 47.7°F8.7°C 43.1°F6.2°C 84% 3.3 mph NW5.3 kmh NW 5.4 mph8.7 kmh 28.61 in968.8 mb 0.00 in0.0 mm 0.00 in/hr0.0 mm/hr 0.05 in1.3 mm
09:59 AM 47.6°F8.7°C 42.9°F6.1°C 83% 2.8 mph WNW4.5 kmh WNW 5.4 mph8.7 kmh 28.61 in968.8 mb 0.00 in0.0 mm 0.00 in/hr0.0 mm/hr 0.05 in1.3 mm
10:04 AM 47.5°F8.6°C 42.7°F5.9°C 83% 3.0 mph NW4.8 kmh NW 6.0 mph9.7 kmh 28.61 in968.8 mb 0.00 in0.0 mm 0.00 in/hr0.0 mm/hr 0.05 in1.3 mm
10:09 AM 47.4°F8.6°C 42.9°F6.1°C 84% 4.3 mph NW6.9 kmh NW 7.6 mph12.2 kmh 28.61 in968.8 mb 0.00 in0.0 mm 0.00 in/hr0.0 mm/hr 0.05 in1.3 mm
10:14 AM 47.5°F8.6°C 43.0°F6.1°C 84% 2.9 mph N4.7 kmh N 7.6 mph12.2 kmh 28.64 in969.9 mb 0.00 in0.0 mm 0.00 in/hr0.0 mm/hr 0.05 in1.3 mm
10:19 AM 47.9°F8.8°C 43.1°F6.2°C 82% 2.0 mph NNW3.2 kmh NNW 4.3 mph6.9 kmh 28.64 in969.9 mb 0.00 in0.0 mm 0.00 in/hr0.0 mm/hr 0.05 in1.3 mm
10:24 AM 48.6°F9.2°C 43.6°F6.4°C 82% 1.3 mph NNW2.1 kmh NNW 4.0 mph6.4 kmh 28.64 in969.9 mb 0.00 in0.0 mm 0.00 in/hr0.0 mm/hr 0.05 in1.3 mm
10:29 AM 48.7°F9.3°C 43.0°F6.1°C 79% 3.4 mph NW5.5 kmh NW 6.0 mph9.7 kmh 28.64 in969.9 mb 0.00 in0.0 mm 0.00 in/hr0.0 mm/hr 0.05 in1.3 mm
10:34 AM 48.7°F9.3°C 42.4°F5.8°C 80% 3.4 mph NW5.5 kmh NW 6.5 mph10.5 kmh 28.64 in969.9 mb 0.00 in0.0 mm 0.00 in/hr0.0 mm/hr 0.05 in1.3 mm
10:39 AM 48.7°F9.3°C 42.7°F5.9°C 79% 3.2 mph NW5.1 kmh NW 6.5 mph10.5 kmh 28.64 in969.9 mb 0.00 in0.0 mm 0.00 in/hr0.0 mm/hr 0.05 in1.3 mm
10:44 AM 48.7°F9.3°C 42.6°F5.9°C 79% 2.2 mph NNW3.5 kmh NNW 5.6 mph9.0 kmh 28.64 in969.9 mb 0.00 in0.0 mm 0.00 in/hr0.0 mm/hr 0.05 in1.3 mm
10:49 AM 48.6°F9.2°C 42.0°F5.6°C 77% 2.5 mph NNW4.0 kmh NNW 4.3 mph6.9 kmh 28.64 in969.9 mb 0.00 in0.0 mm 0.00 in/hr0.0 mm/hr 0.05 in1.3 mm
10:54 AM 48.6°F9.2°C 41.9°F5.5°C 78% 2.4 mph NW3.9 kmh NW 6.5 mph10.5 kmh 28.64 in969.9 mb 0.00 in0.0 mm 0.00 in/hr0.0 mm/hr 0.05 in1.3 mm
10:59 AM 48.5°F9.2°C 42.1°F5.6°C 78% 3.0 mph NNW4.8 kmh NNW 7.6 mph12.2 kmh 28.64 in969.9 mb 0.00 in0.0 mm 0.00 in/hr0.0 mm/hr 0.05 in1.3 mm
11:04 AM 48.2°F9.0°C 41.3°F5.2°C 77% 2.9 mph NNW4.7 kmh NNW 7.6 mph12.2 kmh 28.64 in969.9 mb 0.00 in0.0 mm 0.00 in/hr0.0 mm/hr 0.05 in1.3 mm
11:09 AM 47.9°F8.8°C 41.2°F5.1°C 78% 2.9 mph NW4.7 kmh NW 9.6 mph15.4 kmh 28.64 in969.9 mb 0.00 in0.0 mm 0.00 in/hr0.0 mm/hr 0.05 in1.3 mm
11:14 AM 47.8°F8.8°C 41.6°F5.3°C 80% 2.1 mph NW3.4 kmh NW 9.6 mph15.4 kmh 28.64 in969.9 mb 0.00 in0.0 mm 0.00 in/hr0.0 mm/hr 0.05 in1.3 mm
11:19 AM 47.8°F8.8°C 42.4°F5.8°C 82% 2.3 mph NNW3.7 kmh NNW 3.8 mph6.1 kmh 28.64 in969.9 mb 0.00 in0.0 mm 0.00 in/hr0.0 mm/hr 0.05 in1.3 mm
11:24 AM 47.9°F8.8°C 42.1°F5.6°C 80% 3.4 mph NW5.5 kmh NW 5.6 mph9.0 kmh 28.64 in969.9 mb 0.00 in0.0 mm 0.00 in/hr0.0 mm/hr 0.05 in1.3 mm
11:29 AM 47.9°F8.8°C 41.8°F5.4°C 80% 2.3 mph NW3.7 kmh NW 8.7 mph14.0 kmh 28.64 in969.9 mb 0.00 in0.0 mm 0.00 in/hr0.0 mm/hr 0.05 in1.3 mm
11:34 AM 48.1°F8.9°C 41.5°F5.3°C 78% 2.6 mph NW4.2 kmh NW 8.7 mph14.0 kmh 28.64 in969.9 mb 0.00 in0.0 mm 0.00 in/hr0.0 mm/hr 0.05 in1.3 mm
11:39 AM 48.3°F9.1°C 42.3°F5.7°C 79% 4.7 mph NW7.6 kmh NW 8.1 mph13.0 kmh 28.64 in969.9 mb 0.00 in0.0 mm 0.00 in/hr0.0 mm/hr 0.05 in1.3 mm
11:44 AM 48.1°F8.9°C 42.4°F5.8°C 81% 3.1 mph WNW5.0 kmh WNW 7.8 mph12.6 kmh 28.64 in969.9 mb 0.00 in0.0 mm 0.00 in/hr0.0 mm/hr 0.05 in1.3 mm
11:49 AM 48.0°F8.9°C 42.7°F5.9°C 81% 4.3 mph NW6.9 kmh NW 7.6 mph12.2 kmh 28.64 in969.9 mb 0.00 in0.0 mm 0.00 in/hr0.0 mm/hr 0.05 in1.3 mm
11:54 AM 47.5°F8.6°C 41.9°F5.5°C 82% 2.9 mph NNW4.7 kmh NNW 7.6 mph12.2 kmh 28.64 in969.9 mb 0.00 in0.0 mm 0.00 in/hr0.0 mm/hr 0.05 in1.3 mm
11:59 AM 47.3°F8.5°C 42.2°F5.7°C 82% 3.6 mph WNW5.8 kmh WNW 7.8 mph12.6 kmh 28.67 in970.9 mb 0.00 in0.0 mm 0.00 in/hr0.0 mm/hr 0.05 in1.3 mm
12:04 PM 47.1°F8.4°C 41.9°F5.5°C 83% 3.1 mph NW5.0 kmh NW 7.8 mph12.6 kmh 28.67 in970.9 mb 0.00 in0.0 mm 0.00 in/hr0.0 mm/hr 0.05 in1.3 mm
12:09 PM 46.8°F8.2°C 41.9°F5.5°C 82% 4.8 mph WNW7.7 kmh WNW 6.5 mph10.5 kmh 28.67 in970.9 mb 0.00 in0.0 mm 0.00 in/hr0.0 mm/hr 0.05 in1.3 mm
12:14 PM 46.7°F8.2°C 41.7°F5.4°C 82% 4.5 mph WNW7.2 kmh WNW 7.4 mph11.9 kmh 28.67 in970.9 mb 0.00 in0.0 mm 0.00 in/hr0.0 mm/hr 0.05 in1.3 mm
12:19 PM 46.8°F8.2°C 42.2°F5.7°C 84% 2.3 mph NW3.7 kmh NW 7.4 mph11.9 kmh 28.67 in970.9 mb 0.00 in0.0 mm 0.00 in/hr0.0 mm/hr 0.05 in1.3 mm
12:24 PM 46.8°F8.2°C 42.1°F5.6°C 83% 2.9 mph NW4.7 kmh NW 7.8 mph12.6 kmh 28.67 in970.9 mb 0.00 in0.0 mm 0.00 in/hr0.0 mm/hr 0.05 in1.3 mm
12:29 PM 46.7°F8.2°C 41.9°F5.5°C 83% 3.5 mph NW5.6 kmh NW 7.8 mph12.6 kmh 28.67 in970.9 mb 0.00 in0.0 mm 0.00 in/hr0.0 mm/hr 0.05 in1.3 mm
12:34 PM 46.5°F8.1°C 41.4°F5.2°C 82% 4.7 mph NNW7.6 kmh NNW 7.4 mph11.9 kmh 28.67 in970.9 mb 0.00 in0.0 mm 0.00 in/hr0.0 mm/hr 0.05 in1.3 mm
12:39 PM 46.5°F8.1°C 41.4°F5.2°C 82% 4.4 mph WNW7.1 kmh WNW 9.4 mph15.1 kmh 28.67 in970.9 mb 0.00 in0.0 mm 0.00 in/hr0.0 mm/hr 0.05 in1.3 mm
12:44 PM 46.6°F8.1°C 41.5°F5.3°C 82% 5.2 mph NW8.4 kmh NW 9.4 mph15.1 kmh 28.67 in970.9 mb 0.00 in0.0 mm 0.00 in/hr0.0 mm/hr 0.05 in1.3 mm
12:49 PM 46.6°F8.1°C 41.4°F5.2°C 80% 4.3 mph NW6.9 kmh NW 8.7 mph14.0 kmh 28.67 in970.9 mb 0.00 in0.0 mm 0.00 in/hr0.0 mm/hr 0.05 in1.3 mm
12:54 PM 46.9°F8.3°C 41.5°F5.3°C 81% 2.9 mph NW4.7 kmh NW 8.1 mph13.0 kmh 28.67 in970.9 mb 0.00 in0.0 mm 0.00 in/hr0.0 mm/hr 0.05 in1.3 mm
12:59 PM 46.9°F8.3°C 40.5°F4.7°C 78% 4.1 mph NW6.6 kmh NW 8.1 mph13.0 kmh 28.70 in971.9 mb 0.00 in0.0 mm 0.00 in/hr0.0 mm/hr 0.05 in1.3 mm
01:04 PM 47.0°F8.3°C 40.6°F4.8°C 78% 3.3 mph WNW5.3 kmh WNW 8.1 mph13.0 kmh 28.70 in971.9 mb 0.00 in0.0 mm 0.00 in/hr0.0 mm/hr 0.05 in1.3 mm
01:09 PM 47.1°F8.4°C 40.5°F4.7°C 78% 2.7 mph NW4.3 kmh NW 6.3 mph10.1 kmh 28.70 in971.9 mb 0.00 in0.0 mm 0.00 in/hr0.0 mm/hr 0.05 in1.3 mm
01:14 PM 47.1°F8.4°C 40.4°F4.7°C 76% 3.5 mph W5.6 kmh W 8.5 mph13.7 kmh 28.67 in970.9 mb 0.00 in0.0 mm 0.00 in/hr0.0 mm/hr 0.05 in1.3 mm
01:19 PM 47.1°F8.4°C 40.1°F4.5°C 77% 3.0 mph WNW4.8 kmh WNW 8.5 mph13.7 kmh 28.67 in970.9 mb 0.00 in0.0 mm 0.00 in/hr0.0 mm/hr 0.05 in1.3 mm
01:24 PM 47.3°F8.5°C 40.3°F4.6°C 77% 3.4 mph WNW5.5 kmh WNW 5.6 mph9.0 kmh 28.67 in970.9 mb 0.00 in0.0 mm 0.00 in/hr0.0 mm/hr 0.05 in1.3 mm
01:29 PM 47.5°F8.6°C 40.4°F4.7°C 75% 3.4 mph NNW5.5 kmh NNW 5.6 mph9.0 kmh 28.67 in970.9 mb 0.00 in0.0 mm 0.00 in/hr0.0 mm/hr 0.05 in1.3 mm
01:34 PM 47.8°F8.8°C 40.1°F4.5°C 74% 3.2 mph WSW5.1 kmh WSW 6.3 mph10.1 kmh 28.67 in970.9 mb 0.00 in0.0 mm 0.00 in/hr0.0 mm/hr 0.05 in1.3 mm
01:39 PM 48.0°F8.9°C 40.1°F4.5°C 73% 2.4 mph WNW3.9 kmh WNW 6.3 mph10.1 kmh 28.67 in970.9 mb 0.00 in0.0 mm 0.00 in/hr0.0 mm/hr 0.05 in1.3 mm
01:44 PM 47.9°F8.8°C 39.8°F4.3°C 74% 3.8 mph WNW6.1 kmh WNW 6.3 mph10.1 kmh 28.64 in969.9 mb 0.00 in0.0 mm 0.00 in/hr0.0 mm/hr 0.05 in1.3 mm
01:49 PM 47.7°F8.7°C 39.6°F4.2°C 73% 4.6 mph WNW7.4 kmh WNW 12.1 mph19.5 kmh 28.64 in969.9 mb 0.00 in0.0 mm 0.00 in/hr0.0 mm/hr 0.05 in1.3 mm
01:54 PM 47.5°F8.6°C 39.4°F4.1°C 74% 3.4 mph NW5.5 kmh NW 12.1 mph19.5 kmh 28.64 in969.9 mb 0.00 in0.0 mm 0.00 in/hr0.0 mm/hr 0.05 in1.3 mm
01:59 PM 47.4°F8.6°C 39.4°F4.1°C 73% 4.1 mph NW6.6 kmh NW 6.5 mph10.5 kmh 28.67 in970.9 mb 0.00 in0.0 mm 0.00 in/hr0.0 mm/hr 0.05 in1.3 mm
02:04 PM 47.3°F8.5°C 39.4°F4.1°C 75% 2.8 mph NW4.5 kmh NW 6.5 mph10.5 kmh 28.67 in970.9 mb 0.00 in0.0 mm 0.00 in/hr0.0 mm/hr 0.05 in1.3 mm
02:09 PM 47.4°F8.6°C 39.9°F4.4°C 75% 2.0 mph NW3.2 kmh NW 6.5 mph10.5 kmh 28.67 in970.9 mb 0.00 in0.0 mm 0.00 in/hr0.0 mm/hr 0.05 in1.3 mm
02:14 PM 47.4°F8.6°C 39.5°F4.2°C 74% 2.7 mph NW4.3 kmh NW 3.4 mph5.5 kmh 28.67 in970.9 mb 0.00 in0.0 mm 0.00 in/hr0.0 mm/hr 0.05 in1.3 mm
02:19 PM 47.5°F8.6°C 39.7°F4.3°C 74% 2.3 mph W3.7 kmh W 4.3 mph6.9 kmh 28.67 in970.9 mb 0.00 in0.0 mm 0.00 in/hr0.0 mm/hr 0.05 in1.3 mm
02:24 PM 47.4°F8.6°C 39.3°F4.1°C 73% 3.0 mph WNW4.8 kmh WNW 8.5 mph13.7 kmh 28.67 in970.9 mb 0.00 in0.0 mm 0.00 in/hr0.0 mm/hr 0.05 in1.3 mm
02:29 PM 47.1°F8.4°C 38.6°F3.7°C 72% 5.6 mph NW9.0 kmh NW 8.5 mph13.7 kmh 28.67 in970.9 mb 0.00 in0.0 mm 0.00 in/hr0.0 mm/hr 0.05 in1.3 mm
02:34 PM 46.9°F8.3°C 38.5°F3.6°C 72% 5.6 mph WNW9.0 kmh WNW 8.5 mph13.7 kmh 28.67 in970.9 mb 0.00 in0.0 mm 0.00 in/hr0.0 mm/hr 0.05 in1.3 mm
02:39 PM 46.9°F8.3°C 38.7°F3.7°C 73% 3.3 mph NW5.3 kmh NW 6.5 mph10.5 kmh 28.67 in970.9 mb 0.00 in0.0 mm 0.00 in/hr0.0 mm/hr 0.05 in1.3 mm
02:44 PM 46.9°F8.3°C 39.0°F3.9°C 72% 3.3 mph NNW5.3 kmh NNW 6.5 mph10.5 kmh 28.67 in970.9 mb 0.00 in0.0 mm 0.00 in/hr0.0 mm/hr 0.05 in1.3 mm
02:49 PM 47.1°F8.4°C 38.4°F3.6°C 72% 2.4 mph NW3.9 kmh NW 7.4 mph11.9 kmh 28.67 in970.9 mb 0.00 in0.0 mm 0.00 in/hr0.0 mm/hr 0.05 in1.3 mm
02:57 PM 47.3°F8.5°C 38.6°F3.7°C 72% 2.9 mph NW4.7 kmh NW 4.0 mph6.4 kmh 28.67 in970.9 mb 0.00 in0.0 mm 0.00 in/hr0.0 mm/hr 0.05 in1.3 mm
03:02 PM 47.3°F8.5°C 38.4°F3.6°C 71% 4.7 mph NW7.6 kmh NW 4.0 mph6.4 kmh 28.67 in970.9 mb 0.00 in0.0 mm 0.00 in/hr0.0 mm/hr 0.05 in1.3 mm
03:07 PM 47.3°F8.5°C 38.5°F3.6°C 70% 2.7 mph WNW4.3 kmh WNW 2.5 mph4.0 kmh 28.67 in970.9 mb 0.00 in0.0 mm 0.00 in/hr0.0 mm/hr 0.05 in1.3 mm
03:12 PM 47.5°F8.6°C 38.8°F3.8°C 71% 3.4 mph WNW5.5 kmh WNW 4.0 mph6.4 kmh 28.67 in970.9 mb 0.00 in0.0 mm 0.00 in/hr0.0 mm/hr 0.05 in1.3 mm
03:17 PM 47.4°F8.6°C 38.4°F3.6°C 71% 4.5 mph NW7.2 kmh NW 6.5 mph10.5 kmh 28.67 in970.9 mb 0.00 in0.0 mm 0.00 in/hr0.0 mm/hr 0.05 in1.3 mm
03:25 PM 47.3°F8.5°C 38.6°F3.7°C 72% 3.8 mph NW6.1 kmh NW 6.5 mph10.5 kmh 28.70 in971.9 mb 0.00 in0.0 mm 0.00 in/hr0.0 mm/hr 0.05 in1.3 mm
03:30 PM 47.2°F8.4°C 38.1°F3.4°C 70% 3.8 mph NW6.1 kmh NW 4.9 mph7.9 kmh 28.70 in971.9 mb 0.00 in0.0 mm 0.00 in/hr0.0 mm/hr 0.05 in1.3 mm
03:35 PM 47.1°F8.4°C 38.0°F3.3°C 71% 4.3 mph NW6.9 kmh NW 5.8 mph9.3 kmh 28.70 in971.9 mb 0.00 in0.0 mm 0.00 in/hr0.0 mm/hr 0.05 in1.3 mm
03:40 PM 46.8°F8.2°C 38.0°F3.3°C 72% 3.7 mph NW6.0 kmh NW 6.9 mph11.1 kmh 28.70 in971.9 mb 0.00 in0.0 mm 0.00 in/hr0.0 mm/hr 0.05 in1.3 mm
03:45 PM 46.7°F8.2°C 38.0°F3.3°C 71% 4.1 mph NW6.6 kmh NW 10.1 mph16.3 kmh 28.70 in971.9 mb 0.00 in0.0 mm 0.00 in/hr0.0 mm/hr 0.05 in1.3 mm
03:50 PM 46.6°F8.1°C 38.1°F3.4°C 73% 4.4 mph NW7.1 kmh NW 10.1 mph16.3 kmh 28.70 in971.9 mb 0.00 in0.0 mm 0.00 in/hr0.0 mm/hr 0.05 in1.3 mm
03:55 PM 46.3°F7.9°C 38.0°F3.3°C 73% 5.5 mph NW8.9 kmh NW 10.1 mph16.3 kmh 28.73 in972.9 mb 0.00 in0.0 mm 0.00 in/hr0.0 mm/hr 0.05 in1.3 mm
04:00 PM 46.1°F7.8°C 38.1°F3.4°C 74% 4.7 mph WNW7.6 kmh WNW 10.1 mph16.3 kmh 28.73 in972.9 mb 0.00 in0.0 mm 0.00 in/hr0.0 mm/hr 0.05 in1.3 mm
04:05 PM 45.9°F7.7°C 37.8°F3.2°C 73% 4.3 mph NW6.9 kmh NW 7.8 mph12.6 kmh 28.73 in972.9 mb 0.00 in0.0 mm 0.00 in/hr0.0 mm/hr 0.05 in1.3 mm
04:10 PM 45.8°F7.7°C 37.8°F3.2°C 73% 3.2 mph NW5.1 kmh NW 7.4 mph11.9 kmh 28.73 in972.9 mb 0.00 in0.0 mm 0.00 in/hr0.0 mm/hr 0.05 in1.3 mm
04:15 PM 45.7°F7.6°C 37.7°F3.2°C 74% 4.9 mph WNW7.9 kmh WNW 6.3 mph10.1 kmh 28.73 in972.9 mb 0.00 in0.0 mm 0.00 in/hr0.0 mm/hr 0.05 in1.3 mm
04:20 PM 45.5°F7.5°C 37.4°F3.0°C 73% 4.7 mph NW7.6 kmh NW 8.1 mph13.0 kmh 28.73 in972.9 mb 0.00 in0.0 mm 0.00 in/hr0.0 mm/hr 0.05 in1.3 mm
04:25 PM 45.3°F7.4°C 37.3°F2.9°C 74% 5.0 mph NW8.0 kmh NW 8.1 mph13.0 kmh 28.76 in973.9 mb 0.00 in0.0 mm 0.00 in/hr0.0 mm/hr 0.05 in1.3 mm
04:30 PM 45.2°F7.3°C 37.1°F2.8°C 73% 5.4 mph WNW8.7 kmh WNW 5.6 mph9.0 kmh 28.76 in973.9 mb 0.00 in0.0 mm 0.00 in/hr0.0 mm/hr 0.05 in1.3 mm
04:35 PM 45.1°F7.3°C 37.0°F2.8°C 73% 4.7 mph WNW7.6 kmh WNW 5.6 mph9.0 kmh 28.76 in973.9 mb 0.00 in0.0 mm 0.00 in/hr0.0 mm/hr 0.05 in1.3 mm
04:40 PM 45.1°F7.3°C 36.9°F2.7°C 73% 4.4 mph WNW7.1 kmh WNW 6.5 mph10.5 kmh 28.73 in972.9 mb 0.00 in0.0 mm 0.00 in/hr0.0 mm/hr 0.05 in1.3 mm
04:45 PM 45.1°F7.3°C 36.7°F2.6°C 72% 4.0 mph WNW6.4 kmh WNW 6.5 mph10.5 kmh 28.73 in972.9 mb 0.00 in0.0 mm 0.00 in/hr0.0 mm/hr 0.05 in1.3 mm
04:50 PM 45.1°F7.3°C 36.8°F2.7°C 73% 4.0 mph WNW6.4 kmh WNW 2.5 mph4.0 kmh 28.73 in972.9 mb 0.00 in0.0 mm 0.00 in/hr0.0 mm/hr 0.05 in1.3 mm
04:55 PM 45.2°F7.3°C 37.0°F2.8°C 72% 4.0 mph WNW6.4 kmh WNW 2.5 mph4.0 kmh 28.70 in971.9 mb 0.00 in0.0 mm 0.00 in/hr0.0 mm/hr 0.05 in1.3 mm
05:07 PM 45.4°F7.4°C 36.7°F2.6°C 71% 2.7 mph ESE4.3 kmh ESE 2.7 mph4.3 kmh 28.70 in971.9 mb 0.00 in0.0 mm 0.00 in/hr0.0 mm/hr 0.05 in1.3 mm
05:12 PM 45.5°F7.5°C 36.5°F2.5°C 70% 2.7 mph ESE4.3 kmh ESE 2.7 mph4.3 kmh 28.70 in971.9 mb 0.00 in0.0 mm 0.00 in/hr0.0 mm/hr 0.05 in1.3 mm
05:17 PM 45.5°F7.5°C 36.6°F2.6°C 70% 2.7 mph ESE4.3 kmh ESE 2.7 mph4.3 kmh 28.70 in971.9 mb 0.00 in0.0 mm 0.00 in/hr0.0 mm/hr 0.05 in1.3 mm
05:22 PM 45.3°F7.4°C 36.0°F2.2°C 70% 3.4 mph NW5.5 kmh NW 3.4 mph5.5 kmh 28.70 in971.9 mb 0.00 in0.0 mm 0.00 in/hr0.0 mm/hr 0.05 in1.3 mm
05:27 PM 45.1°F7.3°C 36.0°F2.2°C 70% 2.2 mph NW3.5 kmh NW 3.4 mph5.5 kmh 28.73 in972.9 mb 0.00 in0.0 mm 0.00 in/hr0.0 mm/hr 0.05 in1.3 mm
05:32 PM 45.0°F7.2°C 35.8°F2.1°C 70% 3.8 mph WSW6.1 kmh WSW 2.9 mph4.7 kmh 28.73 in972.9 mb 0.00 in0.0 mm 0.00 in/hr0.0 mm/hr 0.05 in1.3 mm
05:37 PM 44.9°F7.2°C 35.5°F1.9°C 69% 6.8 mph WNW10.9 kmh WNW 3.6 mph5.8 kmh 28.73 in972.9 mb 0.00 in0.0 mm 0.00 in/hr0.0 mm/hr 0.05 in1.3 mm
05:42 PM 44.7°F7.1°C 35.3°F1.8°C 70% 3.8 mph NW6.1 kmh NW 7.4 mph11.9 kmh 28.73 in972.9 mb 0.00 in0.0 mm 0.00 in/hr0.0 mm/hr 0.05 in1.3 mm
05:47 PM 44.6°F7.0°C 35.4°F1.9°C 70% 5.3 mph NNW8.5 kmh NNW 7.4 mph11.9 kmh 28.73 in972.9 mb 0.00 in0.0 mm 0.00 in/hr0.0 mm/hr 0.05 in1.3 mm
05:52 PM 44.5°F6.9°C 35.6°F2.0°C 71% 4.8 mph NW7.7 kmh NW 7.2 mph11.6 kmh 28.73 in972.9 mb 0.00 in0.0 mm 0.00 in/hr0.0 mm/hr 0.05 in1.3 mm
05:57 PM 44.3°F6.8°C 35.6°F2.0°C 72% 3.2 mph NW5.1 kmh NW 6.5 mph10.5 kmh 28.73 in972.9 mb 0.00 in0.0 mm 0.00 in/hr0.0 mm/hr 0.05 in1.3 mm
06:02 PM 44.1°F6.7°C 35.4°F1.9°C 71% 3.9 mph WNW6.3 kmh WNW 9.6 mph15.4 kmh 28.73 in972.9 mb 0.00 in0.0 mm 0.00 in/hr0.0 mm/hr 0.05 in1.3 mm
06:07 PM 43.9°F6.6°C 35.3°F1.8°C 72% 2.6 mph WNW4.2 kmh WNW 9.6 mph15.4 kmh 28.73 in972.9 mb 0.00 in0.0 mm 0.00 in/hr0.0 mm/hr 0.05 in1.3 mm
06:12 PM 43.7°F6.5°C 35.4°F1.9°C 73% 3.4 mph WNW5.5 kmh WNW 7.6 mph12.2 kmh 28.76 in973.9 mb 0.00 in0.0 mm 0.00 in/hr0.0 mm/hr 0.05 in1.3 mm
06:17 PM 43.5°F6.4°C 35.2°F1.8°C 72% 4.9 mph NW7.9 kmh NW 7.6 mph12.2 kmh 28.76 in973.9 mb 0.00 in0.0 mm 0.00 in/hr0.0 mm/hr 0.05 in1.3 mm
06:22 PM 43.4°F6.3°C 35.3°F1.8°C 73% 4.8 mph WNW7.7 kmh WNW 7.6 mph12.2 kmh 28.76 in973.9 mb 0.00 in0.0 mm 0.00 in/hr0.0 mm/hr 0.05 in1.3 mm
06:27 PM 43.2°F6.2°C 35.2°F1.8°C 73% 2.8 mph NW4.5 kmh NW 8.1 mph13.0 kmh 28.76 in973.9 mb 0.00 in0.0 mm 0.00 in/hr0.0 mm/hr 0.05 in1.3 mm
06:32 PM 43.0°F6.1°C 35.0°F1.7°C 73% 2.9 mph NW4.7 kmh NW 8.1 mph13.0 kmh 28.76 in973.9 mb 0.00 in0.0 mm 0.00 in/hr0.0 mm/hr 0.05 in1.3 mm
06:37 PM 42.9°F6.1°C 34.8°F1.6°C 73% 3.2 mph NW5.1 kmh NW 6.0 mph9.7 kmh 28.76 in973.9 mb 0.00 in0.0 mm 0.00 in/hr0.0 mm/hr 0.05 in1.3 mm
06:42 PM 42.8°F6.0°C 35.0°F1.7°C 74% 2.2 mph NNW3.5 kmh NNW 6.0 mph9.7 kmh 28.79 in974.9 mb 0.00 in0.0 mm 0.00 in/hr0.0 mm/hr 0.05 in1.3 mm
06:47 PM 42.5°F5.8°C 34.9°F1.6°C 75% 2.2 mph NW3.5 kmh NW 5.6 mph9.0 kmh 28.79 in974.9 mb 0.00 in0.0 mm 0.00 in/hr0.0 mm/hr 0.05 in1.3 mm
06:52 PM 42.4°F5.8°C 35.1°F1.7°C 75% 2.6 mph NW4.2 kmh NW 4.3 mph6.9 kmh 28.79 in974.9 mb 0.00 in0.0 mm 0.00 in/hr0.0 mm/hr 0.05 in1.3 mm
06:57 PM 42.3°F5.7°C 35.0°F1.7°C 75% 2.7 mph NW4.3 kmh NW 4.9 mph7.9 kmh 28.79 in974.9 mb 0.00 in0.0 mm 0.00 in/hr0.0 mm/hr 0.05 in1.3 mm
07:02 PM 42.3°F5.7°C 34.9°F1.6°C 74% 3.7 mph NW6.0 kmh NW 10.3 mph16.6 kmh 28.79 in974.9 mb 0.00 in0.0 mm 0.00 in/hr0.0 mm/hr 0.05 in1.3 mm
07:07 PM 42.2°F5.7°C 34.8°F1.6°C 75% 2.7 mph WNW4.3 kmh WNW 10.3 mph16.6 kmh 28.79 in974.9 mb 0.00 in0.0 mm 0.00 in/hr0.0 mm/hr 0.05 in1.3 mm
07:12 PM 42.1°F5.6°C 34.9°F1.6°C 75% 4.5 mph NW7.2 kmh NW 7.6 mph12.2 kmh 28.79 in974.9 mb 0.00 in0.0 mm 0.00 in/hr0.0 mm/hr 0.05 in1.3 mm
07:17 PM 42.1°F5.6°C 35.0°F1.7°C 76% 3.2 mph NW5.1 kmh NW 7.6 mph12.2 kmh 28.79 in974.9 mb 0.00 in0.0 mm 0.00 in/hr0.0 mm/hr 0.05 in1.3 mm
07:22 PM 42.1°F5.6°C 34.9°F1.6°C 75% 4.2 mph NW6.8 kmh NW 8.5 mph13.7 kmh 28.79 in974.9 mb 0.00 in0.0 mm 0.00 in/hr0.0 mm/hr 0.05 in1.3 mm
07:27 PM 42.0°F5.6°C 34.9°F1.6°C 76% 3.1 mph NW5.0 kmh NW 10.1 mph16.3 kmh 28.79 in974.9 mb 0.00 in0.0 mm 0.00 in/hr0.0 mm/hr 0.05 in1.3 mm
07:32 PM 41.9°F5.5°C 35.0°F1.7°C 77% 5.4 mph W8.7 kmh W 11.9 mph19.2 kmh 28.79 in974.9 mb 0.00 in0.0 mm 0.00 in/hr0.0 mm/hr 0.05 in1.3 mm
07:37 PM 41.8°F5.4°C 35.0°F1.7°C 77% 3.4 mph NW5.5 kmh NW 11.9 mph19.2 kmh 28.79 in974.9 mb 0.00 in0.0 mm 0.00 in/hr0.0 mm/hr 0.05 in1.3 mm
07:42 PM 41.7°F5.4°C 35.1°F1.7°C 77% 3.8 mph W6.1 kmh W 8.1 mph13.0 kmh 28.76 in973.9 mb 0.00 in0.0 mm 0.00 in/hr0.0 mm/hr 0.05 in1.3 mm
07:47 PM 41.7°F5.4°C 35.1°F1.7°C 78% 3.8 mph WNW6.1 kmh WNW 8.1 mph13.0 kmh 28.76 in973.9 mb 0.00 in0.0 mm 0.00 in/hr0.0 mm/hr 0.05 in1.3 mm
07:52 PM 41.7°F5.4°C 35.3°F1.8°C 78% 2.2 mph NW3.5 kmh NW 7.6 mph12.2 kmh 28.76 in973.9 mb 0.00 in0.0 mm 0.00 in/hr0.0 mm/hr 0.05 in1.3 mm
07:57 PM 41.7°F5.4°C 35.4°F1.9°C 78% 5.1 mph NNW8.2 kmh NNW 6.3 mph10.1 kmh 28.76 in973.9 mb 0.00 in0.0 mm 0.00 in/hr0.0 mm/hr 0.05 in1.3 mm
08:02 PM 41.7°F5.4°C 35.3°F1.8°C 78% 3.1 mph WNW5.0 kmh WNW 6.9 mph11.1 kmh 28.76 in973.9 mb 0.00 in0.0 mm 0.00 in/hr0.0 mm/hr 0.05 in1.3 mm
08:07 PM 41.7°F5.4°C 35.4°F1.9°C 78% 4.5 mph WNW7.2 kmh WNW 8.5 mph13.7 kmh 28.76 in973.9 mb 0.00 in0.0 mm 0.00 in/hr0.0 mm/hr 0.05 in1.3 mm
08:12 PM 41.7°F5.4°C 35.4°F1.9°C 78% 3.6 mph NW5.8 kmh NW 8.5 mph13.7 kmh 28.79 in974.9 mb 0.00 in0.0 mm 0.00 in/hr0.0 mm/hr 0.05 in1.3 mm
08:17 PM 41.7°F5.4°C 35.4°F1.9°C 78% 2.5 mph NW4.0 kmh NW 5.6 mph9.0 kmh 28.79 in974.9 mb 0.00 in0.0 mm 0.00 in/hr0.0 mm/hr 0.05 in1.3 mm
08:22 PM 41.7°F5.4°C 35.4°F1.9°C 78% 3.7 mph NW6.0 kmh NW 7.8 mph12.6 kmh 28.79 in974.9 mb 0.00 in0.0 mm 0.00 in/hr0.0 mm/hr 0.05 in1.3 mm
08:27 PM 41.7°F5.4°C 35.4°F1.9°C 78% 3.4 mph WNW5.5 kmh WNW 7.8 mph12.6 kmh 28.79 in974.9 mb 0.00 in0.0 mm 0.00 in/hr0.0 mm/hr 0.05 in1.3 mm
08:32 PM 41.9°F5.5°C 35.5°F1.9°C 78% 2.3 mph W3.7 kmh W 6.5 mph10.5 kmh 28.79 in974.9 mb 0.00 in0.0 mm 0.00 in/hr0.0 mm/hr 0.05 in1.3 mm
08:37 PM 41.9°F5.5°C 35.6°F2.0°C 78% 3.1 mph NNE5.0 kmh NNE 6.5 mph10.5 kmh 28.79 in974.9 mb 0.00 in0.0 mm 0.00 in/hr0.0 mm/hr 0.05 in1.3 mm
08:42 PM 41.9°F5.5°C 35.6°F2.0°C 78% 1.7 mph W2.7 kmh W 5.8 mph9.3 kmh 28.82 in976.0 mb 0.00 in0.0 mm 0.00 in/hr0.0 mm/hr 0.05 in1.3 mm
08:47 PM 41.9°F5.5°C 35.6°F2.0°C 78% 2.8 mph NW4.5 kmh NW 6.5 mph10.5 kmh 28.82 in976.0 mb 0.00 in0.0 mm 0.00 in/hr0.0 mm/hr 0.05 in1.3 mm
08:52 PM 41.9°F5.5°C 35.6°F2.0°C 78% 3.9 mph NW6.3 kmh NW 6.5 mph10.5 kmh 28.82 in976.0 mb 0.00 in0.0 mm 0.00 in/hr0.0 mm/hr 0.05 in1.3 mm
08:57 PM 42.0°F5.6°C 35.5°F1.9°C 77% 4.3 mph NW6.9 kmh NW 8.7 mph14.0 kmh 28.82 in976.0 mb 0.00 in0.0 mm 0.00 in/hr0.0 mm/hr 0.05 in1.3 mm
09:02 PM 42.1°F5.6°C 35.6°F2.0°C 77% 4.2 mph W6.8 kmh W 11.2 mph18.0 kmh 28.82 in976.0 mb 0.00 in0.0 mm 0.00 in/hr0.0 mm/hr 0.05 in1.3 mm
09:07 PM 42.1°F5.6°C 35.3°F1.8°C 76% 3.9 mph NW6.3 kmh NW 11.2 mph18.0 kmh 28.82 in976.0 mb 0.00 in0.0 mm 0.00 in/hr0.0 mm/hr 0.05 in1.3 mm
09:12 PM 42.1°F5.6°C 35.4°F1.9°C 77% 3.3 mph NNW5.3 kmh NNW 8.1 mph13.0 kmh 28.82 in976.0 mb 0.00 in0.0 mm 0.00 in/hr0.0 mm/hr 0.05 in1.3 mm
09:17 PM 42.1°F5.6°C 35.3°F1.8°C 77% 3.3 mph NW5.3 kmh NW 9.8 mph15.8 kmh 28.82 in976.0 mb 0.00 in0.0 mm 0.00 in/hr0.0 mm/hr 0.05 in1.3 mm
09:22 PM 42.1°F5.6°C 35.4°F1.9°C 77% 3.9 mph WNW6.3 kmh WNW 10.3 mph16.6 kmh 28.82 in976.0 mb 0.00 in0.0 mm 0.00 in/hr0.0 mm/hr 0.05 in1.3 mm
09:27 PM 42.0°F5.6°C 35.5°F1.9°C 78% 2.6 mph WNW4.2 kmh WNW 10.3 mph16.6 kmh 28.82 in976.0 mb 0.00 in0.0 mm 0.00 in/hr0.0 mm/hr 0.05 in1.3 mm
09:32 PM 41.9°F5.5°C 35.5°F1.9°C 78% 2.2 mph NW3.5 kmh NW 6.5 mph10.5 kmh 28.82 in976.0 mb 0.00 in0.0 mm 0.00 in/hr0.0 mm/hr 0.05 in1.3 mm
09:37 PM 41.7°F5.4°C 35.7°F2.1°C 79% 2.2 mph WNW3.5 kmh WNW 4.7 mph7.6 kmh 28.82 in976.0 mb 0.00 in0.0 mm 0.00 in/hr0.0 mm/hr 0.05 in1.3 mm
09:42 PM 41.7°F5.4°C 35.6°F2.0°C 79% 2.3 mph NW3.7 kmh NW 6.0 mph9.7 kmh 28.82 in976.0 mb 0.00 in0.0 mm 0.00 in/hr0.0 mm/hr 0.05 in1.3 mm
09:47 PM 41.6°F5.3°C 35.7°F2.1°C 80% 2.7 mph WNW4.3 kmh WNW 6.3 mph10.1 kmh 28.82 in976.0 mb 0.00 in0.0 mm 0.00 in/hr0.0 mm/hr 0.05 in1.3 mm
09:52 PM 41.5°F5.3°C 36.2°F2.3°C 81% 3.1 mph NW5.0 kmh NW 6.3 mph10.1 kmh 28.82 in976.0 mb 0.00 in0.0 mm 0.00 in/hr0.0 mm/hr 0.05 in1.3 mm
09:57 PM 41.5°F5.3°C 36.3°F2.4°C 82% 3.4 mph WNW5.5 kmh WNW 6.3 mph10.1 kmh 28.82 in976.0 mb 0.00 in0.0 mm 0.00 in/hr0.0 mm/hr 0.05 in1.3 mm
10:02 PM 41.3°F5.2°C 36.4°F2.4°C 83% 3.1 mph WNW5.0 kmh WNW 6.0 mph9.7 kmh 28.82 in976.0 mb 0.00 in0.0 mm 0.00 in/hr0.0 mm/hr 0.05 in1.3 mm
10:09 PM 41.2°F5.1°C 36.6°F2.6°C 84% 3.0 mph NW4.8 kmh NW 5.6 mph9.0 kmh 28.82 in976.0 mb 0.00 in0.0 mm 0.00 in/hr0.0 mm/hr 0.05 in1.3 mm
10:14 PM 41.2°F5.1°C 36.9°F2.7°C 84% 2.5 mph NW4.0 kmh NW 5.6 mph9.0 kmh 28.85 in977.0 mb 0.00 in0.0 mm 0.00 in/hr0.0 mm/hr 0.05 in1.3 mm
10:19 PM 41.2°F5.1°C 36.9°F2.7°C 84% 2.3 mph WNW3.7 kmh WNW 4.0 mph6.4 kmh 28.85 in977.0 mb 0.00 in0.0 mm 0.00 in/hr0.0 mm/hr 0.05 in1.3 mm
10:24 PM 41.0°F5.0°C 36.7°F2.6°C 84% 1.7 mph WNW2.7 kmh WNW 5.8 mph9.3 kmh 28.85 in977.0 mb 0.00 in0.0 mm 0.00 in/hr0.0 mm/hr 0.05 in1.3 mm
10:29 PM 41.0°F5.0°C 37.0°F2.8°C 86% 2.5 mph NW4.0 kmh NW 5.8 mph9.3 kmh 28.85 in977.0 mb 0.00 in0.0 mm 0.00 in/hr0.0 mm/hr 0.05 in1.3 mm
10:34 PM 41.0°F5.0°C 37.0°F2.8°C 86% 3.2 mph NW5.1 kmh NW 5.8 mph9.3 kmh 28.85 in977.0 mb 0.00 in0.0 mm 0.00 in/hr0.0 mm/hr 0.05 in1.3 mm
10:39 PM 41.0°F5.0°C 37.0°F2.8°C 86% 2.1 mph NW3.4 kmh NW 5.6 mph9.0 kmh 28.85 in977.0 mb 0.00 in0.0 mm 0.00 in/hr0.0 mm/hr 0.05 in1.3 mm
10:44 PM 41.0°F5.0°C 37.3°F2.9°C 87% 3.9 mph WNW6.3 kmh WNW 7.6 mph12.2 kmh 28.85 in977.0 mb 0.00 in0.0 mm 0.00 in/hr0.0 mm/hr 0.05 in1.3 mm
10:49 PM 40.9°F4.9°C 37.3°F2.9°C 88% 3.7 mph WNW6.0 kmh WNW 7.6 mph12.2 kmh 28.85 in977.0 mb 0.00 in0.0 mm 0.00 in/hr0.0 mm/hr 0.05 in1.3 mm
10:54 PM 40.6°F4.8°C 37.3°F2.9°C 88% 2.5 mph WNW4.0 kmh WNW 5.8 mph9.3 kmh 28.85 in977.0 mb 0.00 in0.0 mm 0.00 in/hr0.0 mm/hr 0.05 in1.3 mm
10:59 PM 40.5°F4.7°C 37.2°F2.9°C 88% 3.1 mph NW5.0 kmh NW 6.9 mph11.1 kmh 28.85 in977.0 mb 0.00 in0.0 mm 0.00 in/hr0.0 mm/hr 0.05 in1.3 mm
11:04 PM 40.4°F4.7°C 37.0°F2.8°C 88% 3.8 mph NW6.1 kmh NW 7.8 mph12.6 kmh 28.85 in977.0 mb 0.00 in0.0 mm 0.00 in/hr0.0 mm/hr 0.05 in1.3 mm
11:09 PM 40.2°F4.6°C 37.0°F2.8°C 89% 3.8 mph NW6.1 kmh NW 7.8 mph12.6 kmh 28.85 in977.0 mb 0.00 in0.0 mm 0.00 in/hr0.0 mm/hr 0.05 in1.3 mm
11:14 PM 39.9°F4.4°C 36.7°F2.6°C 89% 3.6 mph NW5.8 kmh NW 7.4 mph11.9 kmh 28.85 in977.0 mb 0.00 in0.0 mm 0.00 in/hr0.0 mm/hr 0.05 in1.3 mm
11:19 PM 39.7°F4.3°C 36.7°F2.6°C 89% 4.8 mph NW7.7 kmh NW 7.4 mph11.9 kmh 28.85 in977.0 mb 0.04 in1.0 mm 0.48 in/hr12.2 mm/hr 0.04 in1.0 mm
11:24 PM 39.6°F4.2°C 36.6°F2.6°C 89% 4.9 mph W7.9 kmh W 13.0 mph20.9 kmh 28.85 in977.0 mb 0.04 in1.0 mm 0.00 in/hr0.0 mm/hr 0.04 in1.0 mm
11:29 PM 39.4°F4.1°C 36.4°F2.4°C 89% 4.8 mph NW7.7 kmh NW 13.0 mph20.9 kmh 28.88 in978.0 mb 0.04 in1.0 mm 0.00 in/hr0.0 mm/hr 0.04 in1.0 mm
11:34 PM 39.3°F4.1°C 36.3°F2.4°C 89% 5.0 mph NW8.0 kmh NW 10.3 mph16.6 kmh 28.88 in978.0 mb 0.04 in1.0 mm 0.00 in/hr0.0 mm/hr 0.04 in1.0 mm
11:39 PM 39.1°F3.9°C 36.2°F2.3°C 89% 4.7 mph NW7.6 kmh NW 7.6 mph12.2 kmh 28.88 in978.0 mb 0.04 in1.0 mm 0.00 in/hr0.0 mm/hr 0.04 in1.0 mm
11:44 PM 38.9°F3.8°C 36.2°F2.3°C 90% 4.4 mph NW7.1 kmh NW 9.6 mph15.4 kmh 28.85 in977.0 mb 0.04 in1.0 mm 0.00 in/hr0.0 mm/hr 0.04 in1.0 mm
11:49 PM 38.8°F3.8°C 36.1°F2.3°C 90% 3.7 mph W6.0 kmh W 9.6 mph15.4 kmh 28.85 in977.0 mb 0.04 in1.0 mm 0.00 in/hr0.0 mm/hr 0.04 in1.0 mm
11:54 PM 38.7°F3.7°C 36.0°F2.2°C 90% 3.9 mph WNW6.3 kmh WNW 6.0 mph9.7 kmh 28.85 in977.0 mb 0.04 in1.0 mm 0.00 in/hr0.0 mm/hr 0.04 in1.0 mm
11:59 PM 38.5°F3.6°C 35.8°F2.1°C 90% 4.5 mph WNW7.2 kmh WNW 10.3 mph16.6 kmh 28.82 in976.0 mb 0.04 in1.0 mm 0.00 in/hr0.0 mm/hr 0.04 in1.0 mm